createdAt,value
2018-02-09T04:00:41.410Z,93.23
2018-02-09T04:01:41.356Z,93.23
2018-02-09T04:04:24.807Z,93.42
2018-02-09T04:05:24.716Z,93.42
2018-02-09T04:08:09.145Z,93.51
2018-02-09T04:09:09.565Z,93.32
2018-02-09T04:11:52.484Z,93.32
2018-02-09T04:12:53.328Z,93.42
2018-02-09T04:15:35.792Z,93.42
2018-02-09T04:16:35.755Z,93.32
2018-02-09T04:19:19.795Z,93.70
2018-02-09T04:20:19.611Z,93.13
2018-02-09T04:23:03.506Z,93.61
2018-02-09T04:24:03.404Z,93.61
2018-02-09T04:26:47.750Z,93.13
2018-02-09T04:27:47.728Z,93.51
2018-02-09T04:30:31.675Z,93.18
2018-02-09T04:31:31.566Z,93.18
2018-02-09T04:34:14.422Z,93.13
2018-02-09T04:35:14.866Z,92.76
2018-02-09T04:37:59.209Z,92.76
2018-02-09T04:38:58.751Z,92.57
2018-02-09T04:41:43.139Z,92.66
2018-02-09T04:42:43.062Z,92.76
2018-02-09T04:45:26.902Z,93.23
2018-02-09T04:46:26.475Z,93.13
2018-02-09T04:49:10.360Z,92.57
2018-02-09T04:50:10.246Z,92.76
2018-02-09T04:52:53.146Z,92.66
2018-02-09T04:53:53.134Z,92.10
2018-02-09T04:56:37.434Z,92.10
2018-02-09T04:57:36.479Z,92.10
2018-02-09T05:00:20.290Z,91.72
2018-02-09T05:01:20.348Z,91.82
2018-02-09T05:04:03.682Z,92.19
2018-02-09T05:05:02.719Z,92.38
2018-02-09T05:07:47.068Z,92.47
2018-02-09T05:08:47.016Z,92.47
2018-02-09T05:11:32.296Z,92.47
2018-02-09T05:12:31.834Z,92.76
2018-02-09T05:15:15.176Z,92.38
2018-02-09T05:16:14.738Z,92.76
2018-02-09T05:18:59.401Z,92.10
2018-02-09T05:19:59.323Z,92.38
2018-02-09T05:22:43.661Z,92.57
2018-02-09T05:23:43.538Z,92.47
2018-02-09T05:26:27.940Z,92.10
2018-02-09T05:27:28.877Z,92.47
2018-02-09T05:30:12.687Z,92.85
2018-02-09T05:31:12.644Z,92.95
2018-02-09T05:32:13.213Z,92.47
2018-02-09T05:33:12.568Z,92.38
2018-02-09T05:34:12.172Z,92.47
2018-02-09T05:35:12.149Z,93.13
2018-02-09T05:36:12.151Z,92.95
2018-02-09T05:37:12.622Z,92.57
2018-02-09T05:38:12.490Z,93.13
2018-02-09T05:39:12.520Z,92.85
2018-02-09T05:40:13.517Z,92.85
2018-02-09T05:41:12.495Z,92.85
2018-02-09T05:42:12.573Z,92.76
2018-02-09T05:43:12.389Z,93.13
2018-02-09T05:44:12.134Z,93.13
2018-02-09T05:45:12.384Z,92.99
2018-02-09T05:46:12.452Z,92.47
2018-02-09T05:47:13.167Z,92.47
2018-02-09T05:48:12.930Z,92.38
2018-02-09T05:49:12.394Z,92.47
2018-02-09T05:50:12.421Z,92.80
2018-02-09T05:51:12.921Z,92.19
2018-02-09T05:52:11.928Z,92.14
2018-02-09T05:53:11.917Z,92.24
2018-02-09T05:54:11.888Z,92.14
2018-02-09T05:55:11.887Z,91.67
2018-02-09T05:56:11.864Z,91.96
2018-02-09T05:57:11.846Z,91.86
2018-02-09T05:58:11.848Z,91.77
2018-02-09T05:59:11.955Z,92.24
2018-02-09T06:00:11.821Z,92.14
2018-02-09T06:00:27.785Z,91.49
2018-02-09T06:02:11.793Z,92.05
2018-02-09T06:03:11.778Z,91.96
2018-02-09T06:04:11.757Z,91.96
2018-02-09T06:05:11.754Z,92.05
2018-02-09T06:06:11.746Z,91.67
2018-02-09T06:07:11.738Z,91.67
2018-02-09T06:08:11.725Z,91.96
2018-02-09T06:09:11.697Z,92.14
2018-02-09T06:10:11.686Z,91.96
2018-02-09T06:11:11.671Z,91.67
2018-02-09T06:12:11.659Z,91.67
2018-02-09T06:13:11.648Z,91.67
2018-02-09T06:14:11.634Z,91.96
2018-02-09T06:15:11.638Z,91.96
2018-02-09T06:16:11.617Z,91.77
2018-02-09T06:17:11.604Z,91.86
2018-02-09T06:18:11.585Z,91.77
2018-02-09T06:19:11.587Z,92.05
2018-02-09T06:20:11.556Z,91.96
2018-02-09T06:21:11.546Z,91.77
2018-02-09T06:22:11.535Z,91.77
2018-02-09T06:23:11.514Z,92.43
2018-02-09T06:24:11.522Z,92.43
2018-02-09T06:25:11.490Z,91.86
2018-02-09T06:26:11.481Z,91.67
2018-02-09T06:27:11.468Z,92.05
2018-02-09T06:28:11.454Z,91.86
2018-02-09T06:29:11.447Z,91.58
2018-02-09T06:30:11.434Z,91.67
2018-02-09T06:31:11.418Z,91.77
2018-02-09T06:32:11.403Z,91.86
2018-02-09T06:33:11.410Z,91.96
2018-02-09T06:34:11.379Z,91.96
2018-02-09T06:35:11.364Z,91.86
2018-02-09T06:36:11.343Z,91.77
2018-02-09T06:37:11.339Z,91.96
2018-02-09T06:38:11.345Z,91.77
2018-02-09T06:39:11.322Z,92.14
2018-02-09T06:40:11.298Z,92.14
2018-02-09T06:41:11.291Z,92.14
2018-02-09T06:42:11.292Z,91.77
2018-02-09T06:43:11.262Z,92.43
2018-02-09T06:44:11.243Z,92.33
2018-02-09T06:45:11.241Z,92.14
2018-02-09T06:46:11.387Z,92.52
2018-02-09T06:47:11.215Z,92.52
2018-02-09T06:48:11.214Z,92.71
2018-02-09T06:49:11.250Z,92.61
2018-02-09T06:50:11.166Z,92.52
2018-02-09T06:51:11.307Z,92.52
2018-02-09T06:52:11.205Z,92.52
2018-02-09T06:53:11.168Z,93.28
2018-02-09T06:54:11.136Z,92.90
2018-02-09T06:55:11.229Z,92.80
2018-02-09T06:56:11.082Z,93.18
2018-02-09T06:57:11.112Z,92.99
2018-02-09T06:58:11.081Z,93.56
2018-02-09T06:59:12.795Z,93.37
2018-02-09T07:00:11.104Z,93.66
2018-02-09T07:01:11.050Z,94.32
2018-02-09T07:02:11.030Z,93.66
2018-02-09T07:03:10.994Z,92.80
2018-02-09T07:04:10.992Z,92.99
2018-02-09T07:05:10.976Z,92.90
2018-02-09T07:06:10.978Z,92.80
2018-02-09T07:07:10.940Z,93.09
2018-02-09T07:08:10.933Z,92.90
2018-02-09T07:09:10.935Z,92.90
2018-02-09T07:10:10.924Z,92.99
2018-02-09T07:11:11.085Z,93.09
2018-02-09T07:12:10.882Z,92.71
2018-02-09T07:13:10.875Z,92.52
2018-02-09T07:14:10.864Z,91.86
2018-02-09T07:15:10.850Z,91.77
2018-02-09T07:16:10.831Z,90.92
2018-02-09T07:17:10.821Z,90.92
2018-02-09T07:18:10.812Z,91.20
2018-02-09T07:19:10.816Z,91.58
2018-02-09T07:20:10.791Z,90.73
2018-02-09T07:21:10.769Z,90.54
2018-02-09T07:22:10.753Z,89.59
2018-02-09T07:23:10.761Z,89.40
2018-02-09T07:24:10.744Z,89.50
2018-02-09T07:25:10.716Z,88.37
2018-02-09T07:26:10.711Z,88.46
2018-02-09T07:27:10.702Z,88.75
2018-02-09T07:28:10.683Z,88.28
2018-02-09T07:29:10.673Z,87.99
2018-02-09T07:30:10.666Z,87.71
2018-02-09T07:31:10.645Z,87.62
2018-02-09T07:32:10.632Z,87.80
2018-02-09T07:33:10.623Z,87.33
2018-02-09T07:34:10.602Z,87.71
2018-02-09T07:35:10.593Z,87.62
2018-02-09T07:36:10.584Z,87.52
2018-02-09T07:37:10.566Z,87.24
2018-02-09T07:38:10.574Z,86.95
2018-02-09T07:39:10.559Z,86.95
2018-02-09T07:40:10.538Z,86.86
2018-02-09T07:41:10.524Z,86.57
2018-02-09T07:42:10.506Z,87.05
2018-02-09T07:43:10.525Z,86.67
2018-02-09T07:44:10.490Z,87.24
2018-02-09T07:45:10.475Z,86.76
2018-02-09T07:46:10.456Z,86.86
2018-02-09T07:47:10.444Z,87.43
2018-02-09T07:48:10.438Z,87.05
2018-02-09T07:49:10.424Z,87.14
2018-02-09T07:50:10.403Z,86.38
2018-02-09T07:51:10.385Z,86.67
2018-02-09T07:52:10.413Z,87.24
2018-02-09T07:53:10.355Z,87.43
2018-02-09T07:54:10.351Z,87.09
2018-02-09T07:55:10.339Z,86.99
2018-02-09T07:56:10.346Z,87.18
2018-02-09T07:57:10.309Z,87.18
2018-02-09T07:58:10.297Z,86.99
2018-02-09T07:59:10.296Z,86.71
2018-02-09T08:00:10.279Z,86.24
2018-02-09T08:01:10.265Z,86.52
2018-02-09T08:02:10.251Z,86.33
2018-02-09T08:03:10.236Z,86.43
2018-02-09T08:04:10.238Z,86.62
2018-02-09T08:05:10.210Z,86.43
2018-02-09T08:06:10.203Z,85.77
2018-02-09T08:07:10.192Z,85.39
2018-02-09T08:08:10.173Z,85.77
2018-02-09T08:09:10.154Z,85.49
2018-02-09T08:10:10.152Z,85.77
2018-02-09T08:11:10.136Z,85.68
2018-02-09T08:12:10.129Z,85.39
2018-02-09T08:13:10.107Z,85.68
2018-02-09T08:14:10.097Z,85.77
2018-02-09T08:15:10.082Z,85.20
2018-02-09T08:16:10.064Z,84.82
2018-02-09T08:17:10.066Z,84.82
2018-02-09T08:18:10.050Z,84.82
2018-02-09T08:19:10.038Z,85.01
2018-02-09T08:20:10.034Z,85.11
2018-02-09T08:21:10.008Z,85.11
2018-02-09T08:22:09.994Z,84.82
2018-02-09T08:23:09.986Z,85.58
2018-02-09T08:24:09.987Z,85.77
2018-02-09T08:25:09.956Z,85.11
2018-02-09T08:26:09.952Z,84.30
2018-02-09T08:27:09.938Z,84.68
2018-02-09T08:28:09.925Z,84.39
2018-02-09T08:29:09.905Z,84.45
2018-02-09T08:30:09.907Z,84.39
2018-02-09T08:31:09.884Z,84.30
2018-02-09T08:32:09.872Z,84.49
2018-02-09T08:33:09.860Z,84.49
2018-02-09T08:34:09.843Z,84.68
2018-02-09T08:35:09.835Z,83.73
2018-02-09T08:36:09.816Z,83.36
2018-02-09T08:37:09.807Z,83.54
2018-02-09T08:38:09.812Z,83.26
2018-02-09T08:39:09.784Z,83.83
2018-02-09T08:40:09.774Z,83.45
2018-02-09T08:41:09.759Z,83.64
2018-02-09T08:42:09.740Z,83.17
2018-02-09T08:43:09.735Z,82.50
2018-02-09T08:44:09.737Z,82.98
2018-02-09T08:45:09.705Z,82.79
2018-02-09T08:46:09.695Z,82.88
2018-02-09T08:47:09.678Z,82.98
2018-02-09T08:48:09.676Z,82.31
2018-02-09T08:49:09.657Z,82.69
2018-02-09T08:50:09.652Z,82.79
2018-02-09T08:51:09.638Z,82.41
2018-02-09T08:52:09.638Z,82.12
2018-02-09T08:53:09.604Z,82.03
2018-02-09T08:54:09.618Z,82.12
2018-02-09T08:55:09.596Z,82.22
2018-02-09T08:56:09.574Z,82.41
2018-02-09T08:57:09.562Z,82.22
2018-02-09T08:58:09.571Z,81.60
2018-02-09T08:59:09.545Z,81.79
2018-02-09T09:00:09.520Z,81.60
2018-02-09T09:01:09.510Z,81.51
2018-02-09T09:02:09.525Z,81.41
2018-02-09T09:03:09.496Z,81.41
2018-02-09T09:04:09.482Z,81.60
2018-02-09T09:05:09.523Z,81.32
2018-02-09T09:06:09.511Z,81.22
2018-02-09T09:07:09.435Z,81.32
2018-02-09T09:08:09.420Z,81.60
2018-02-09T09:09:09.426Z,81.51
2018-02-09T09:10:09.438Z,81.22
2018-02-09T09:11:09.395Z,80.94
2018-02-09T09:12:09.371Z,80.84
2018-02-09T09:13:09.370Z,81.13
2018-02-09T09:14:09.366Z,80.84
2018-02-09T09:15:09.368Z,81.03
2018-02-09T09:16:09.333Z,80.37
2018-02-09T09:17:09.322Z,80.08
2018-02-09T09:18:09.307Z,80.08
2018-02-09T09:19:09.304Z,80.18
2018-02-09T09:20:09.277Z,79.80
2018-02-09T09:21:09.271Z,79.80
2018-02-09T09:22:09.260Z,80.46
2018-02-09T09:23:09.246Z,80.27
2018-02-09T09:24:09.228Z,80.18
2018-02-09T09:25:09.232Z,80.46
2018-02-09T09:26:09.212Z,79.90
2018-02-09T09:27:09.200Z,80.18
2018-02-09T09:28:09.238Z,79.80
2018-02-09T09:29:09.172Z,79.52
2018-02-09T09:30:09.197Z,79.52
2018-02-09T09:31:09.169Z,80.08
2018-02-09T09:32:09.153Z,80.27
2018-02-09T09:33:09.138Z,79.99
2018-02-09T09:34:09.118Z,79.99
2018-02-09T09:35:09.147Z,79.99
2018-02-09T09:36:09.113Z,80.04
2018-02-09T09:37:09.102Z,79.85
2018-02-09T09:38:09.074Z,80.04
2018-02-09T09:39:09.060Z,79.56
2018-02-09T09:40:09.062Z,79.66
2018-02-09T09:41:09.040Z,79.66
2018-02-09T09:42:09.030Z,79.94
2018-02-09T09:43:09.009Z,79.85
2018-02-09T09:44:08.993Z,79.94
2018-02-09T09:45:08.993Z,79.47
2018-02-09T09:46:08.994Z,78.90
2018-02-09T09:47:08.961Z,78.90
2018-02-09T09:48:08.949Z,78.33
2018-02-09T09:49:08.965Z,78.52
2018-02-09T09:50:08.932Z,78.61
2018-02-09T09:51:08.922Z,79.18
2018-02-09T09:52:08.904Z,78.99
2018-02-09T09:53:08.902Z,79.09
2018-02-09T09:54:08.925Z,78.99
2018-02-09T09:55:08.877Z,78.90
2018-02-09T09:56:08.865Z,78.80
2018-02-09T09:57:08.849Z,78.52
2018-02-09T09:58:08.838Z,78.33
2018-02-09T09:59:08.833Z,78.99
2018-02-09T10:00:08.806Z,78.14
2018-02-09T10:01:08.810Z,77.67
2018-02-09T10:02:08.796Z,78.23
2018-02-09T10:03:08.787Z,77.67
2018-02-09T10:04:08.774Z,78.23
2018-02-09T10:05:08.773Z,78.14
2018-02-09T10:06:08.739Z,77.76
2018-02-09T10:07:08.738Z,78.42
2018-02-09T10:08:08.725Z,76.82
2018-02-09T10:09:08.711Z,76.67
2018-02-09T10:10:08.708Z,76.48
2018-02-09T10:11:08.690Z,77.04
2018-02-09T10:12:08.681Z,76.67
2018-02-09T10:13:08.669Z,77.14
2018-02-09T10:14:08.674Z,77.04
2018-02-09T10:15:08.645Z,77.33
2018-02-09T10:16:08.645Z,77.14
2018-02-09T10:17:08.624Z,76.76
2018-02-09T10:18:08.644Z,76.19
2018-02-09T10:19:08.602Z,76.19
2018-02-09T10:20:08.588Z,75.62
2018-02-09T10:21:08.588Z,75.62
2018-02-09T10:22:08.572Z,75.81
2018-02-09T10:23:08.552Z,75.47
2018-02-09T10:24:08.562Z,75.15
2018-02-09T10:25:08.529Z,75.15
2018-02-09T10:26:08.525Z,75.05
2018-02-09T10:27:08.517Z,75.09
2018-02-09T10:28:08.515Z,74.90
2018-02-09T10:29:08.500Z,75.09
2018-02-09T10:30:08.488Z,74.81
2018-02-09T10:31:08.503Z,74.71
2018-02-09T10:32:08.463Z,75.00
2018-02-09T10:33:08.448Z,75.19
2018-02-09T10:34:08.448Z,75.28
2018-02-09T10:35:08.458Z,75.19
2018-02-09T10:36:08.433Z,75.19
2018-02-09T10:37:08.425Z,74.90
2018-02-09T10:38:08.394Z,74.43
2018-02-09T10:39:08.386Z,74.33
2018-02-09T10:40:08.379Z,74.24
2018-02-09T10:41:08.381Z,74.43
2018-02-09T10:42:08.376Z,74.33
2018-02-09T10:43:08.345Z,74.43
2018-02-09T10:44:08.334Z,74.33
2018-02-09T10:45:08.322Z,74.33
2018-02-09T10:46:08.324Z,74.71
2018-02-09T10:47:08.307Z,75.38
2018-02-09T10:48:08.303Z,75.09
2018-02-09T10:49:08.287Z,74.43
2018-02-09T10:50:08.280Z,74.71
2018-02-09T10:51:08.291Z,74.24
2018-02-09T10:52:08.285Z,74.81
2018-02-09T10:53:08.247Z,74.62
2018-02-09T10:54:08.253Z,74.15
2018-02-09T10:55:08.256Z,73.96
2018-02-09T10:56:08.213Z,73.49
2018-02-09T10:57:08.209Z,73.68
2018-02-09T10:58:08.213Z,73.30
2018-02-09T10:59:08.196Z,73.86
2018-02-09T11:00:08.176Z,74.33
2018-02-09T11:01:08.173Z,74.15
2018-02-09T11:02:08.162Z,74.62
2018-02-09T11:03:08.147Z,74.43
2018-02-09T11:04:08.137Z,73.86
2018-02-09T11:05:08.146Z,74.24
2018-02-09T11:06:08.140Z,73.58
2018-02-09T11:07:08.117Z,74.05
2018-02-09T11:08:08.097Z,74.15
2018-02-09T11:09:08.101Z,73.30
2018-02-09T11:10:08.078Z,73.68
2018-02-09T11:11:08.072Z,73.11
2018-02-09T11:12:08.055Z,73.11
2018-02-09T11:13:08.068Z,73.11
2018-02-09T11:14:08.031Z,73.30
2018-02-09T11:15:08.070Z,73.20
2018-02-09T11:16:08.020Z,73.30
2018-02-09T11:17:08.021Z,72.92
2018-02-09T11:18:08.004Z,72.96
2018-02-09T11:19:07.988Z,72.86
2018-02-09T11:20:07.985Z,73.24
2018-02-09T11:21:07.983Z,73.33
2018-02-09T11:22:07.968Z,73.05
2018-02-09T11:23:07.958Z,72.96
2018-02-09T11:24:07.944Z,72.77
2018-02-09T11:25:07.955Z,71.72
2018-02-09T11:26:07.969Z,71.91
2018-02-09T11:27:07.959Z,71.91
2018-02-09T11:28:07.902Z,71.44
2018-02-09T11:29:07.889Z,71.62
2018-02-09T11:30:07.900Z,72.10
2018-02-09T11:31:09.840Z,72.48
2018-02-09T11:32:07.864Z,72.19
2018-02-09T11:33:07.848Z,71.72
2018-02-09T11:34:07.839Z,71.62
2018-02-09T11:35:07.845Z,70.97
2018-02-09T11:36:07.880Z,71.62
2018-02-09T11:37:07.814Z,70.78
2018-02-09T11:38:07.832Z,70.87
2018-02-09T11:39:07.816Z,71.38
2018-02-09T11:40:07.799Z,70.81
2018-02-09T11:41:07.785Z,72.00
2018-02-09T11:42:07.780Z,71.81
2018-02-09T11:43:07.762Z,71.06
2018-02-09T11:44:07.769Z,70.68
2018-02-09T11:45:07.744Z,70.39
2018-02-09T11:46:07.746Z,71.09
2018-02-09T11:47:07.728Z,71.28
2018-02-09T11:48:07.728Z,71.00
2018-02-09T11:49:07.709Z,71.38
2018-02-09T11:50:07.697Z,71.00
2018-02-09T11:51:07.681Z,70.81
2018-02-09T11:52:07.688Z,70.43
2018-02-09T11:53:07.680Z,69.86
2018-02-09T11:54:07.671Z,70.15
2018-02-09T11:55:07.671Z,70.24
2018-02-09T11:56:07.640Z,70.15
2018-02-09T11:57:07.635Z,69.48
2018-02-09T11:58:07.641Z,69.48
2018-02-09T11:59:07.620Z,69.67
2018-02-09T12:00:07.608Z,69.77
2018-02-09T12:01:07.606Z,69.57
2018-02-09T12:02:07.583Z,69.67
2018-02-09T12:03:07.579Z,69.77
2018-02-09T12:04:07.570Z,69.38
2018-02-09T12:05:07.557Z,69.01
2018-02-09T12:06:07.648Z,69.10
2018-02-09T12:07:07.551Z,68.91
2018-02-09T12:08:07.546Z,69.01
2018-02-09T12:09:09.386Z,69.29
2018-02-09T12:10:07.528Z,69.29
2018-02-09T12:11:07.515Z,69.29
2018-02-09T12:12:07.519Z,70.15
2018-02-09T12:13:07.499Z,70.62
2018-02-09T12:14:07.505Z,71.00
2018-02-09T12:15:07.489Z,71.28
2018-02-09T12:16:07.472Z,70.34
2018-02-09T12:17:07.471Z,70.34
2018-02-09T12:18:07.456Z,70.24
2018-02-09T12:19:07.441Z,70.15
2018-02-09T12:20:07.438Z,70.05
2018-02-09T12:21:07.433Z,70.53
2018-02-09T12:22:07.439Z,70.15
2018-02-09T12:23:07.405Z,70.15
2018-02-09T12:24:07.400Z,70.43
2018-02-09T12:25:07.385Z,70.43
2018-02-09T12:26:07.384Z,70.90
2018-02-09T12:27:07.400Z,70.62
2018-02-09T12:28:07.375Z,70.43
2018-02-09T12:29:07.356Z,70.24
2018-02-09T12:30:07.352Z,70.15
2018-02-09T12:31:07.340Z,70.34
2018-02-09T12:32:07.331Z,70.34
2018-02-09T12:33:07.324Z,69.77
2018-02-09T12:34:07.338Z,70.15
2018-02-09T12:35:07.308Z,69.86
2018-02-09T12:36:07.295Z,70.43
2018-02-09T12:37:07.304Z,70.24
2018-02-09T12:38:07.308Z,70.72
2018-02-09T12:39:07.262Z,70.34
2018-02-09T12:40:07.269Z,70.53
2018-02-09T12:41:07.298Z,70.24
2018-02-09T12:42:07.246Z,69.90
2018-02-09T12:43:07.243Z,70.05
2018-02-09T12:44:07.239Z,70.15
2018-02-09T12:45:07.219Z,69.67
2018-02-09T12:46:07.239Z,69.57
2018-02-09T12:47:07.240Z,69.86
2018-02-09T12:48:07.188Z,69.67
2018-02-09T12:49:07.195Z,68.54
2018-02-09T12:50:07.171Z,68.44
2018-02-09T12:51:07.170Z,68.44
2018-02-09T12:52:07.146Z,68.54
2018-02-09T12:53:07.154Z,68.63
2018-02-09T12:54:07.158Z,68.63
2018-02-09T12:55:07.144Z,68.63
2018-02-09T12:56:07.117Z,68.54
2018-02-09T12:57:07.107Z,69.10
2018-02-09T12:58:07.103Z,68.91
2018-02-09T12:59:07.115Z,68.54
2018-02-09T13:00:07.108Z,69.48
2018-02-09T13:01:07.068Z,68.82
2018-02-09T13:02:07.083Z,69.38
2018-02-09T13:03:07.074Z,69.10
2018-02-09T13:04:07.049Z,68.91
2018-02-09T13:05:07.036Z,68.63
2018-02-09T13:06:07.021Z,69.48
2018-02-09T13:07:07.033Z,69.29
2018-02-09T13:08:07.015Z,69.96
2018-02-09T13:09:07.006Z,70.15
2018-02-09T13:10:06.987Z,70.15
2018-02-09T13:11:06.992Z,70.15
2018-02-09T13:12:06.965Z,70.53
2018-02-09T13:13:06.956Z,70.43
2018-02-09T13:14:06.957Z,70.43
2018-02-09T13:15:06.968Z,70.43
2018-02-09T13:16:06.942Z,70.30
2018-02-09T13:17:06.924Z,70.34
2018-02-09T13:18:06.911Z,70.49
2018-02-09T13:19:06.907Z,70.34
2018-02-09T13:20:06.931Z,70.05
2018-02-09T13:21:06.897Z,70.15
2018-02-09T13:22:06.886Z,70.62
2018-02-09T13:23:06.876Z,70.39
2018-02-09T13:24:06.858Z,70.39
2018-02-09T13:25:06.861Z,70.68
2018-02-09T13:26:06.865Z,70.78
2018-02-09T13:27:06.833Z,70.01
2018-02-09T13:28:06.824Z,70.30
2018-02-09T13:29:06.821Z,70.20
2018-02-09T13:30:06.801Z,70.49
2018-02-09T13:31:06.798Z,70.58
2018-02-09T13:32:06.798Z,70.68
2018-02-09T13:33:06.774Z,70.39
2018-02-09T13:34:06.789Z,70.49
2018-02-09T13:35:06.753Z,70.68
2018-02-09T13:36:06.739Z,71.25
2018-02-09T13:37:06.750Z,70.97
2018-02-09T13:38:06.753Z,70.97
2018-02-09T13:39:06.737Z,71.44
2018-02-09T13:40:06.737Z,71.44
2018-02-09T13:41:06.716Z,71.15
2018-02-09T13:42:06.700Z,70.87
2018-02-09T13:43:06.684Z,71.44
2018-02-09T13:44:06.674Z,71.44
2018-02-09T13:45:06.677Z,71.25
2018-02-09T13:46:06.649Z,70.49
2018-02-09T13:47:06.647Z,71.25
2018-02-09T13:48:06.623Z,70.97
2018-02-09T13:49:06.647Z,70.97
2018-02-09T13:50:06.641Z,70.87
2018-02-09T13:51:06.620Z,70.87
2018-02-09T13:52:06.598Z,71.25
2018-02-09T13:53:06.611Z,71.81
2018-02-09T13:54:06.584Z,72.00
2018-02-09T13:55:06.570Z,72.00
2018-02-09T13:56:06.563Z,71.15
2018-02-09T13:57:06.548Z,71.34
2018-02-09T13:58:06.546Z,71.06
2018-02-09T13:59:06.534Z,71.53
2018-02-09T14:00:06.517Z,71.15
2018-02-09T14:01:06.520Z,70.78
2018-02-09T14:02:06.561Z,71.44
2018-02-09T14:03:06.488Z,71.25
2018-02-09T14:04:06.494Z,71.25
2018-02-09T14:05:06.481Z,71.34
2018-02-09T14:06:06.481Z,71.62
2018-02-09T14:07:06.445Z,70.97
2018-02-09T14:08:06.440Z,71.44
2018-02-09T14:09:06.434Z,70.97
2018-02-09T14:10:06.427Z,71.25
2018-02-09T14:11:06.424Z,71.44
2018-02-09T14:12:06.405Z,71.06
2018-02-09T14:13:06.405Z,71.53
2018-02-09T14:14:06.383Z,72.10
2018-02-09T14:15:06.377Z,71.91
2018-02-09T14:16:06.374Z,72.10
2018-02-09T14:17:06.364Z,72.00
2018-02-09T14:18:06.339Z,72.00
2018-02-09T14:19:06.330Z,72.86
2018-02-09T14:20:06.337Z,72.57
2018-02-09T14:21:06.321Z,72.96
2018-02-09T14:22:06.309Z,73.05
2018-02-09T14:23:06.316Z,72.96
2018-02-09T14:24:06.292Z,73.05
2018-02-09T14:25:06.282Z,72.86
2018-02-09T14:26:06.286Z,72.10
2018-02-09T14:27:06.252Z,72.29
2018-02-09T14:28:06.255Z,72.42
2018-02-09T14:29:06.244Z,72.77
2018-02-09T14:30:06.249Z,72.89
2018-02-09T14:31:06.218Z,73.33
2018-02-09T14:32:06.212Z,72.96
2018-02-09T14:33:06.216Z,73.05
2018-02-09T14:34:06.208Z,72.57
2018-02-09T14:35:06.210Z,72.77
2018-02-09T14:36:06.176Z,72.86
2018-02-09T14:37:06.185Z,73.24
2018-02-09T14:38:06.153Z,73.52
2018-02-09T14:39:06.163Z,73.99
2018-02-09T14:40:06.136Z,74.28
2018-02-09T14:41:06.140Z,73.90
2018-02-09T14:42:06.128Z,73.80
2018-02-09T14:43:06.109Z,74.47
2018-02-09T14:44:06.130Z,74.47
2018-02-09T14:45:06.084Z,74.95
2018-02-09T14:46:06.071Z,74.95
2018-02-09T14:47:06.081Z,75.23
2018-02-09T14:48:06.059Z,74.85
2018-02-09T14:49:06.062Z,74.95
2018-02-09T14:50:06.035Z,74.75
2018-02-09T14:51:06.028Z,74.75
2018-02-09T14:52:06.019Z,75.04
2018-02-09T14:53:06.011Z,75.13
2018-02-09T14:54:06.008Z,75.23
2018-02-09T14:55:05.982Z,74.85
2018-02-09T14:56:05.978Z,74.85
2018-02-09T14:57:05.980Z,74.85
2018-02-09T14:58:05.963Z,75.23
2018-02-09T14:59:05.943Z,75.13
2018-02-09T15:00:05.976Z,75.23
2018-02-09T15:01:05.919Z,74.95
2018-02-09T15:02:05.923Z,75.04
2018-02-09T15:03:05.898Z,75.04
2018-02-09T15:04:05.897Z,74.85
2018-02-09T15:05:05.899Z,74.95
2018-02-09T15:06:05.896Z,74.95
2018-02-09T15:07:05.876Z,74.95
2018-02-09T15:08:05.860Z,74.95
2018-02-09T15:09:05.844Z,75.32
2018-02-09T15:10:05.833Z,75.32
2018-02-09T15:11:05.832Z,75.42
2018-02-09T15:12:05.857Z,75.79
2018-02-09T15:13:05.812Z,75.13
2018-02-09T15:14:05.800Z,75.04
2018-02-09T15:15:05.787Z,75.23
2018-02-09T15:16:05.775Z,74.95
2018-02-09T15:17:05.773Z,75.04
2018-02-09T15:18:05.767Z,75.04
2018-02-09T15:19:05.744Z,74.95
2018-02-09T15:20:05.732Z,75.04
2018-02-09T15:21:05.723Z,75.23
2018-02-09T15:22:05.749Z,75.51
2018-02-09T15:23:05.723Z,74.85
2018-02-09T15:24:05.703Z,75.51
2018-02-09T15:25:05.688Z,75.89
2018-02-09T15:26:05.688Z,76.08
2018-02-09T15:27:05.679Z,75.51
2018-02-09T15:28:05.651Z,75.70
2018-02-09T15:29:05.657Z,76.08
2018-02-09T15:30:05.644Z,76.27
2018-02-09T15:31:05.626Z,76.27
2018-02-09T15:32:05.620Z,76.27
2018-02-09T15:33:05.606Z,76.36
2018-02-09T15:34:05.600Z,76.84
2018-02-09T15:35:05.592Z,76.93
2018-02-09T15:36:05.608Z,77.03
2018-02-09T15:37:05.574Z,77.27
2018-02-09T15:38:05.570Z,76.99
2018-02-09T15:39:05.582Z,77.22
2018-02-09T15:40:05.545Z,77.18
2018-02-09T15:41:05.543Z,77.22
2018-02-09T15:42:05.522Z,77.37
2018-02-09T15:43:05.517Z,77.37
2018-02-09T15:44:05.490Z,77.56
2018-02-09T15:45:05.519Z,78.13
2018-02-09T15:46:05.497Z,78.03
2018-02-09T15:47:05.500Z,77.65
2018-02-09T15:48:05.464Z,78.41
2018-02-09T15:49:05.472Z,78.22
2018-02-09T15:50:05.439Z,77.84
2018-02-09T15:51:05.436Z,77.94
2018-02-09T15:52:05.481Z,78.50
2018-02-09T15:53:05.395Z,77.65
2018-02-09T15:54:05.406Z,78.22
2018-02-09T15:55:05.385Z,78.22
2018-02-09T15:56:05.395Z,77.94
2018-02-09T15:57:05.360Z,78.22
2018-02-09T15:58:05.355Z,78.31
2018-02-09T15:59:05.337Z,77.94
2018-02-09T16:00:05.331Z,78.41
2018-02-09T16:01:05.325Z,78.69
2018-02-09T16:02:05.317Z,78.22
2018-02-09T16:03:05.331Z,78.59
2018-02-09T16:04:05.284Z,78.98
2018-02-09T16:05:05.281Z,78.88
2018-02-09T16:06:05.281Z,79.32
2018-02-09T16:07:05.261Z,79.88
2018-02-09T16:08:05.335Z,79.60
2018-02-09T16:09:05.239Z,80.07
2018-02-09T16:10:05.242Z,79.50
2018-02-09T16:11:05.217Z,79.69
2018-02-09T16:12:05.199Z,79.41
2018-02-09T16:13:05.198Z,79.41
2018-02-09T16:14:05.187Z,80.07
2018-02-09T16:15:05.202Z,79.88
2018-02-09T16:16:05.160Z,79.88
2018-02-09T16:17:05.184Z,80.55
2018-02-09T16:18:05.137Z,80.36
2018-02-09T16:19:05.197Z,81.02
2018-02-09T16:20:05.110Z,81.12
2018-02-09T16:21:05.101Z,81.49
2018-02-09T16:22:05.096Z,81.40
2018-02-09T16:23:05.094Z,81.30
2018-02-09T16:24:05.072Z,82.02
2018-02-09T16:25:05.075Z,82.31
2018-02-09T16:26:05.071Z,82.40
2018-02-09T16:27:06.941Z,82.50
2018-02-09T16:28:05.029Z,83.15
2018-02-09T16:29:05.008Z,82.40
2018-02-09T16:30:05.004Z,82.50
2018-02-09T16:31:05.000Z,83.06
2018-02-09T16:32:04.981Z,83.06
2018-02-09T16:33:04.972Z,82.87
2018-02-09T16:34:04.958Z,83.06
2018-02-09T16:35:04.969Z,82.87
2018-02-09T16:36:04.948Z,82.97
2018-02-09T16:37:04.920Z,83.06
2018-02-09T16:38:04.920Z,83.25
2018-02-09T16:39:04.904Z,83.34
2018-02-09T16:40:04.888Z,83.44
2018-02-09T16:41:04.880Z,83.63
2018-02-09T16:42:04.869Z,83.63
2018-02-09T16:43:04.852Z,83.82
2018-02-09T16:44:04.844Z,84.48
2018-02-09T16:45:04.844Z,84.48
2018-02-09T16:46:04.835Z,84.29
2018-02-09T16:47:04.803Z,84.20
2018-02-09T16:48:04.796Z,84.10
2018-02-09T16:49:04.801Z,84.29
2018-02-09T16:50:04.772Z,84.29
2018-02-09T16:51:04.764Z,84.29
2018-02-09T16:52:04.750Z,84.29
2018-02-09T16:53:04.860Z,84.58
2018-02-09T16:54:04.976Z,84.10
2018-02-09T16:55:04.726Z,84.58
2018-02-09T16:56:04.720Z,85.24
2018-02-09T16:57:04.752Z,84.95
2018-02-09T16:58:04.673Z,85.14
2018-02-09T16:59:04.666Z,85.14
2018-02-09T17:00:04.793Z,85.24
2018-02-09T17:01:04.770Z,85.90
2018-02-09T17:02:04.632Z,84.95
2018-02-09T17:03:04.884Z,84.95
2018-02-09T17:04:04.609Z,85.24
2018-02-09T17:05:04.600Z,84.95
2018-02-09T17:06:04.597Z,85.05
2018-02-09T17:07:04.688Z,85.05
2018-02-09T17:08:04.944Z,85.90
2018-02-09T17:09:04.552Z,85.05
2018-02-09T17:10:04.544Z,85.33
2018-02-09T17:11:04.568Z,85.33
2018-02-09T17:12:04.523Z,85.05
2018-02-09T17:13:04.493Z,85.05
2018-02-09T17:14:04.504Z,85.52
2018-02-09T17:15:04.468Z,85.14
2018-02-09T17:16:04.513Z,85.14
2018-02-09T17:17:04.453Z,85.52
2018-02-09T17:18:04.466Z,85.05
2018-02-09T17:19:04.702Z,85.42
2018-02-09T17:20:04.462Z,85.14
2018-02-09T17:21:04.401Z,85.24
2018-02-09T17:22:04.396Z,85.71
2018-02-09T17:23:04.679Z,85.05
2018-02-09T17:24:04.402Z,85.14
2018-02-09T17:25:04.371Z,84.95
2018-02-09T17:26:04.461Z,84.58
2018-02-09T17:27:04.381Z,85.05
2018-02-09T17:28:04.319Z,85.24
2018-02-09T17:29:04.348Z,84.39
2018-02-09T17:30:04.387Z,84.10
2018-02-09T17:31:04.292Z,84.29
2018-02-09T17:32:04.271Z,84.29
2018-02-09T17:33:04.265Z,84.48
2018-02-09T17:34:04.271Z,84.29